createdAt,value
2022-10-18T00:00:52.135Z,5.88
2022-10-18T00:03:19.147Z,6.82
2022-10-18T00:05:47.947Z,6.22
2022-10-18T00:08:16.169Z,6.88
2022-10-18T00:10:43.340Z,6.38
2022-10-18T00:13:10.544Z,6.57
2022-10-18T00:15:37.735Z,5.38
2022-10-18T00:18:04.730Z,6.72
2022-10-18T00:20:31.945Z,6.13
2022-10-18T00:22:58.939Z,7.22
2022-10-18T00:25:25.967Z,7.65
2022-10-18T00:27:52.972Z,7.68
2022-10-18T00:30:20.014Z,7.15
2022-10-18T00:32:47.010Z,7.10
2022-10-18T00:35:13.982Z,7.03
2022-10-18T00:37:40.974Z,7.72
2022-10-18T00:40:08.605Z,7.93
2022-10-18T00:42:37.492Z,6.80
2022-10-18T00:45:16.021Z,6.60
2022-10-18T00:47:48.007Z,6.78
2022-10-18T00:50:15.296Z,6.53
2022-10-18T00:52:53.371Z,6.70
2022-10-18T00:55:21.132Z,7.35
2022-10-18T00:57:49.266Z,6.45
2022-10-18T01:00:17.119Z,8.15
2022-10-18T01:02:46.395Z,9.38
2022-10-18T01:05:15.676Z,9.57
2022-10-18T01:07:42.608Z,9.55
2022-10-18T01:10:25.497Z,9.50
2022-10-18T01:16:10.869Z,8.63
2022-10-18T01:18:48.526Z,6.75
2022-10-18T01:21:25.004Z,6.43
2022-10-18T01:24:09.155Z,6.65
2022-10-18T01:27:03.805Z,5.82
2022-10-18T01:29:47.459Z,5.38
2022-10-18T01:32:21.571Z,5.97
2022-10-18T01:34:53.197Z,6.10
2022-10-18T01:37:22.470Z,6.63
2022-10-18T01:39:54.248Z,5.50
2022-10-18T01:42:21.513Z,6.40
2022-10-18T01:44:51.883Z,5.57
2022-10-18T01:47:20.595Z,6.32
2022-10-18T01:49:47.613Z,6.45
2022-10-18T01:52:16.140Z,6.20
2022-10-18T01:54:48.968Z,7.03
2022-10-18T01:57:45.785Z,5.78
2022-10-18T02:00:16.805Z,7.38
2022-10-18T02:02:55.067Z,5.88
2022-10-18T02:05:44.615Z,8.65
2022-10-18T02:08:26.214Z,8.50
2022-10-18T02:11:00.376Z,8.73
2022-10-18T02:13:32.171Z,9.25
2022-10-18T02:16:07.618Z,8.47
2022-10-18T02:18:39.581Z,8.52
2022-10-18T02:21:10.872Z,10.00
2022-10-18T02:23:38.830Z,9.73
2022-10-18T02:26:06.687Z,9.57
2022-10-18T02:28:33.914Z,9.52
2022-10-18T02:31:13.907Z,9.45
2022-10-18T02:33:56.535Z,9.07
2022-10-18T02:37:02.392Z,10.77
2022-10-18T02:39:32.343Z,11.32
2022-10-18T02:41:59.827Z,8.15
2022-10-18T02:44:27.405Z,9.07
2022-10-18T02:46:54.529Z,9.30
2022-10-18T02:49:21.701Z,8.85
2022-10-18T02:51:48.687Z,8.65
2022-10-18T02:54:16.036Z,8.65
2022-10-18T02:56:43.037Z,9.40
2022-10-18T02:59:11.192Z,9.90
2022-10-18T03:01:38.334Z,8.73
2022-10-18T03:04:05.872Z,8.75
2022-10-18T03:06:33.357Z,8.32
2022-10-18T03:09:03.314Z,9.18
2022-10-18T03:11:30.597Z,7.57
2022-10-18T03:13:57.823Z,8.35
2022-10-18T03:16:24.895Z,9.85
2022-10-18T03:18:51.917Z,8.48
2022-10-18T03:21:18.991Z,9.07
2022-10-18T03:23:45.985Z,9.20
2022-10-18T03:26:12.972Z,7.80
2022-10-18T03:28:40.022Z,9.50
2022-10-18T03:31:07.087Z,8.23
2022-10-18T03:33:34.223Z,7.60
2022-10-18T03:36:01.240Z,7.85
2022-10-18T03:38:28.489Z,7.03
2022-10-18T03:40:55.618Z,8.48
2022-10-18T03:43:22.995Z,8.38
2022-10-18T03:45:50.327Z,8.48
2022-10-18T03:48:17.320Z,7.70
2022-10-18T03:50:44.470Z,8.15
2022-10-18T03:53:11.598Z,8.70
2022-10-18T03:55:38.755Z,8.63
2022-10-18T03:58:06.178Z,7.43
2022-10-18T04:00:33.333Z,8.05
2022-10-18T04:03:00.427Z,8.52
2022-10-18T04:05:30.584Z,8.07
2022-10-18T04:07:58.268Z,6.97
2022-10-18T04:10:25.574Z,6.82
2022-10-18T04:12:52.704Z,6.70
2022-10-18T04:15:19.798Z,7.25
2022-10-18T04:17:47.186Z,7.13
2022-10-18T04:20:14.375Z,7.40
2022-10-18T04:22:41.495Z,7.22
2022-10-18T04:25:08.623Z,8.88
2022-10-18T04:27:36.175Z,6.68
2022-10-18T04:30:03.984Z,7.45
2022-10-18T04:32:30.985Z,7.70
2022-10-18T04:34:58.006Z,7.55
2022-10-18T04:37:25.037Z,7.95
2022-10-18T04:39:53.667Z,8.73
2022-10-18T04:42:22.048Z,11.73
2022-10-18T04:44:49.284Z,8.00
2022-10-18T04:47:17.301Z,6.68
2022-10-18T04:49:44.343Z,7.15
2022-10-18T04:52:11.746Z,5.70
2022-10-18T04:54:38.742Z,5.70
2022-10-18T04:57:06.067Z,5.18
2022-10-18T04:59:33.068Z,4.13
2022-10-18T05:02:00.211Z,5.10
2022-10-18T05:04:27.580Z,4.32
2022-10-18T05:06:54.580Z,4.97
2022-10-18T05:09:24.538Z,5.32
2022-10-18T05:11:51.653Z,3.60
2022-10-18T05:14:18.893Z,3.53
2022-10-18T05:16:45.885Z,3.97
2022-10-18T05:19:12.954Z,4.70
2022-10-18T05:21:40.143Z,3.70
2022-10-18T05:24:07.253Z,4.70
2022-10-18T05:26:34.383Z,3.17
2022-10-18T05:29:01.666Z,3.10
2022-10-18T05:31:28.775Z,3.38
2022-10-18T05:33:55.979Z,4.00
2022-10-18T05:36:23.103Z,3.38
2022-10-18T05:38:50.347Z,3.15
2022-10-18T05:41:17.479Z,5.40
2022-10-18T05:43:44.523Z,5.25
2022-10-18T05:46:15.493Z,6.47
2022-10-18T05:48:44.521Z,4.85
2022-10-18T05:51:11.943Z,4.35
2022-10-18T05:53:39.003Z,4.20
2022-10-18T05:56:07.178Z,4.03
2022-10-18T05:58:34.829Z,4.15
2022-10-18T06:01:04.097Z,4.65
2022-10-18T06:03:31.384Z,4.93
2022-10-18T06:06:03.715Z,4.95
2022-10-18T06:08:32.755Z,4.47
2022-10-18T06:10:59.859Z,4.72
2022-10-18T06:13:28.205Z,4.72
2022-10-18T06:15:57.556Z,5.78
2022-10-18T06:18:24.860Z,3.75
2022-10-18T06:20:59.483Z,3.80
2022-10-18T06:23:28.042Z,3.58
2022-10-18T06:26:03.062Z,3.75
2022-10-18T06:28:30.669Z,4.05
2022-10-18T06:30:58.306Z,3.55
2022-10-18T06:33:25.637Z,4.30
2022-10-18T06:36:22.027Z,3.85
2022-10-18T06:38:49.499Z,4.43
2022-10-18T06:41:17.864Z,4.10
2022-10-18T06:43:53.028Z,4.68
2022-10-18T06:46:20.266Z,4.88
2022-10-18T06:48:47.321Z,3.65
2022-10-18T06:51:15.339Z,4.53
2022-10-18T06:53:44.401Z,4.32
2022-10-18T06:56:20.422Z,3.75
2022-10-18T06:58:47.583Z,3.83
2022-10-18T07:01:16.736Z,3.90
2022-10-18T07:03:45.519Z,4.93
2022-10-18T07:06:14.750Z,4.03
2022-10-18T07:08:41.953Z,4.45
2022-10-18T07:11:15.001Z,4.15
2022-10-18T07:13:42.307Z,4.43
2022-10-18T07:16:17.400Z,4.35
2022-10-18T07:18:49.547Z,5.03
2022-10-18T07:21:21.196Z,4.75
2022-10-18T07:23:49.119Z,4.45
2022-10-18T07:26:31.307Z,4.40
2022-10-18T07:29:01.828Z,4.88
2022-10-18T07:31:29.318Z,5.05
2022-10-18T07:33:56.654Z,5.07
2022-10-18T07:36:24.561Z,6.05
2022-10-18T07:38:52.567Z,5.05
2022-10-18T07:41:21.090Z,5.07
2022-10-18T07:43:50.961Z,4.45
2022-10-18T07:46:19.838Z,3.80
2022-10-18T07:48:47.499Z,4.00
2022-10-18T07:51:15.065Z,3.80
2022-10-18T07:53:42.206Z,4.43
2022-10-18T07:56:16.198Z,4.40
2022-10-18T07:58:44.454Z,3.45
2022-10-18T08:01:12.322Z,3.40
2022-10-18T08:03:40.134Z,2.28
2022-10-18T08:06:09.604Z,2.90
2022-10-18T08:08:38.096Z,2.67
2022-10-18T08:11:07.240Z,2.67
2022-10-18T08:13:34.366Z,2.17
2022-10-18T08:16:06.966Z,2.55
2022-10-18T08:21:02.377Z,2.63
2022-10-18T08:23:29.644Z,2.78
2022-10-18T08:25:56.817Z,2.53
2022-10-18T08:28:23.944Z,2.90
2022-10-18T08:30:50.982Z,2.67
2022-10-18T08:33:17.967Z,3.10
2022-10-18T08:35:54.959Z,3.15
2022-10-18T08:38:21.959Z,3.10
2022-10-18T08:40:49.035Z,2.85
2022-10-18T08:43:26.527Z,3.05
2022-10-18T08:45:54.550Z,2.10
2022-10-18T08:48:27.344Z,2.20
2022-10-18T08:50:57.513Z,1.95
2022-10-18T08:53:30.041Z,2.15
2022-10-18T08:56:14.466Z,1.67
2022-10-18T08:58:46.554Z,1.80
2022-10-18T09:01:28.581Z,1.58
2022-10-18T09:04:25.681Z,2.08
2022-10-18T09:07:04.665Z,1.60
2022-10-18T09:09:43.587Z,2.05
2022-10-18T09:12:16.730Z,1.73
2022-10-18T09:15:04.425Z,2.58
2022-10-18T09:18:01.886Z,2.00
2022-10-18T09:20:36.206Z,2.15
2022-10-18T09:23:17.011Z,2.30
2022-10-18T09:26:06.410Z,1.88
2022-10-18T09:28:50.162Z,1.67
2022-10-18T09:31:21.357Z,1.90
2022-10-18T09:34:02.987Z,2.70
2022-10-18T09:36:37.154Z,1.70
2022-10-18T09:39:16.282Z,2.40
2022-10-18T09:42:04.991Z,2.35
2022-10-18T09:44:37.937Z,1.58
2022-10-18T09:47:16.819Z,1.67
2022-10-18T09:49:52.062Z,1.20
2022-10-18T09:52:25.479Z,1.25
2022-10-18T09:55:13.194Z,1.70
2022-10-18T09:57:48.911Z,1.20
2022-10-18T10:00:22.645Z,0.85
2022-10-18T10:02:49.656Z,1.27
2022-10-18T10:05:16.760Z,1.25
2022-10-18T10:07:45.644Z,1.63
2022-10-18T10:10:24.936Z,1.55
2022-10-18T10:13:22.906Z,1.10
2022-10-18T10:15:59.904Z,0.98
2022-10-18T10:18:38.011Z,1.35
2022-10-18T10:21:15.018Z,1.42
2022-10-18T10:23:56.936Z,1.38
2022-10-18T10:26:35.053Z,1.60
2022-10-18T10:29:02.197Z,1.67
2022-10-18T10:31:31.039Z,1.98
2022-10-18T10:34:05.037Z,2.42
2022-10-18T10:36:33.396Z,1.83
2022-10-18T10:39:18.255Z,1.95
2022-10-18T10:41:54.251Z,2.15
2022-10-18T10:44:28.441Z,2.50
2022-10-18T10:46:56.982Z,2.60
2022-10-18T10:49:39.629Z,2.63
2022-10-18T10:52:26.703Z,2.80
2022-10-18T10:55:05.756Z,2.53
2022-10-18T10:57:38.467Z,2.38
2022-10-18T11:00:05.827Z,2.47
2022-10-18T11:02:35.550Z,2.53
2022-10-18T11:05:22.700Z,2.40
2022-10-18T11:07:55.139Z,2.47
2022-10-18T11:10:28.122Z,2.38
2022-10-18T11:13:23.099Z,1.40
2022-10-18T11:16:10.033Z,1.80
2022-10-18T11:18:37.766Z,1.98
2022-10-18T11:21:16.638Z,1.88
2022-10-18T11:23:45.017Z,2.53
2022-10-18T11:26:11.956Z,2.30
2022-10-18T11:29:03.418Z,2.30
2022-10-18T11:31:38.276Z,2.22
2022-10-18T11:34:25.370Z,1.58
2022-10-18T11:37:39.258Z,1.48
2022-10-18T11:40:56.085Z,2.00
2022-10-18T11:44:01.689Z,1.67
2022-10-18T11:46:59.077Z,2.03
2022-10-18T11:49:57.649Z,1.88
2022-10-18T11:52:56.754Z,2.03
2022-10-18T11:55:47.029Z,1.60
2022-10-18T11:58:36.297Z,1.85
2022-10-18T12:01:28.627Z,1.80
2022-10-18T12:04:14.369Z,2.05
2022-10-18T12:06:45.075Z,1.98
2022-10-18T12:09:32.558Z,1.88
2022-10-18T12:12:11.025Z,1.85
2022-10-18T12:14:49.039Z,1.83
2022-10-18T12:17:50.045Z,1.80
2022-10-18T12:20:23.435Z,1.73
2022-10-18T12:22:56.761Z,1.98
2022-10-18T12:25:24.798Z,1.95
2022-10-18T12:28:09.193Z,2.40
2022-10-18T12:30:47.209Z,2.28
2022-10-18T12:33:28.807Z,2.15
2022-10-18T12:36:19.035Z,1.85
2022-10-18T12:38:49.900Z,1.80
2022-10-18T12:41:21.844Z,1.60
2022-10-18T12:44:02.950Z,1.73
2022-10-18T12:46:52.017Z,1.48
2022-10-18T12:49:27.612Z,1.70
2022-10-18T12:51:59.302Z,1.48
2022-10-18T12:54:34.618Z,1.70
2022-10-18T12:57:04.281Z,1.58
2022-10-18T12:59:31.203Z,1.70
2022-10-18T13:01:58.229Z,2.78
2022-10-18T13:04:28.182Z,1.42
2022-10-18T13:07:02.802Z,1.42
2022-10-18T13:09:35.277Z,1.85
2022-10-18T13:12:11.167Z,1.48
2022-10-18T13:15:25.333Z,1.60
2022-10-18T13:18:10.508Z,1.70
2022-10-18T13:20:43.847Z,1.48
2022-10-18T13:23:31.603Z,1.77
2022-10-18T13:26:11.056Z,1.63
2022-10-18T13:28:42.749Z,1.80
2022-10-18T13:31:28.390Z,2.33
2022-10-18T13:33:55.878Z,1.80
2022-10-18T13:36:25.287Z,2.00
2022-10-18T13:38:58.243Z,1.80
2022-10-18T13:41:32.903Z,2.03
2022-10-18T13:44:34.326Z,2.00
2022-10-18T13:47:04.039Z,2.13
2022-10-18T13:49:38.308Z,2.40
2022-10-18T13:52:37.661Z,1.83
2022-10-18T13:55:38.371Z,2.97
2022-10-18T13:58:15.632Z,3.05
2022-10-18T14:00:53.666Z,2.90
2022-10-18T14:03:55.629Z,3.13
2022-10-18T14:06:23.494Z,3.13
2022-10-18T14:12:16.570Z,3.58
2022-10-18T14:14:47.997Z,3.25
2022-10-18T14:17:42.350Z,2.92
2022-10-18T14:20:29.505Z,3.30
2022-10-18T14:23:12.145Z,3.70
2022-10-18T14:25:39.212Z,3.88
2022-10-18T14:28:12.223Z,3.33
2022-10-18T14:31:02.001Z,3.58
2022-10-18T14:33:37.884Z,3.80
2022-10-18T14:36:20.154Z,4.80
2022-10-18T14:38:49.425Z,3.50
2022-10-18T14:41:17.960Z,3.90
2022-10-18T14:43:46.450Z,3.90
2022-10-18T14:46:28.964Z,4.00
2022-10-18T14:49:01.084Z,3.20
2022-10-18T14:51:35.606Z,3.60
2022-10-18T14:54:03.247Z,4.00
2022-10-18T14:56:36.286Z,3.80
2022-10-18T14:59:09.674Z,3.97
2022-10-18T15:01:36.807Z,3.90
2022-10-18T15:04:08.041Z,4.75
2022-10-18T15:06:35.216Z,4.47
2022-10-18T15:09:04.309Z,4.35
2022-10-18T15:11:31.817Z,4.07
2022-10-18T15:14:06.815Z,5.40
2022-10-18T15:16:38.274Z,4.95
2022-10-18T15:19:30.017Z,5.97
2022-10-18T15:22:30.729Z,6.13
2022-10-18T15:29:02.852Z,5.78
2022-10-18T15:31:36.657Z,5.28
2022-10-18T15:34:15.323Z,5.93
2022-10-18T15:39:16.279Z,5.97
2022-10-18T15:41:57.206Z,7.32
2022-10-18T15:44:31.506Z,7.68
2022-10-18T15:47:13.456Z,7.78
2022-10-18T15:49:46.242Z,7.77
2022-10-18T15:52:28.221Z,7.57
2022-10-18T15:54:56.148Z,8.90
2022-10-18T15:57:26.668Z,7.65
2022-10-18T16:00:07.333Z,8.32
2022-10-18T16:02:40.016Z,7.75
2022-10-18T16:05:16.710Z,7.70
2022-10-18T16:07:43.718Z,7.68
2022-10-18T16:10:14.645Z,8.00
2022-10-18T16:12:41.702Z,8.73
2022-10-18T16:15:09.444Z,9.02
2022-10-18T16:17:36.488Z,9.65
2022-10-18T16:20:04.551Z,9.23
2022-10-18T16:22:34.716Z,10.80
2022-10-18T16:25:04.220Z,9.73
2022-10-18T16:27:31.208Z,10.30
2022-10-18T16:29:58.233Z,10.15
2022-10-18T16:32:25.292Z,10.48
2022-10-18T16:34:52.335Z,9.90
2022-10-18T16:37:19.376Z,9.38
2022-10-18T16:39:46.351Z,9.48
2022-10-18T16:42:13.332Z,9.95
2022-10-18T16:44:40.345Z,8.85
2022-10-18T16:47:07.385Z,9.85
2022-10-18T16:49:34.682Z,10.13
2022-10-18T16:52:01.739Z,9.90
2022-10-18T16:54:28.885Z,10.93
2022-10-18T16:56:55.889Z,9.95
2022-10-18T16:59:29.219Z,11.68
2022-10-18T17:01:56.406Z,10.95
2022-10-18T17:04:23.498Z,11.40
2022-10-18T17:06:51.312Z,12.45
2022-10-18T17:09:18.323Z,12.40
2022-10-18T17:11:45.336Z,11.40
2022-10-18T17:14:12.348Z,11.32
2022-10-18T17:16:39.352Z,10.48
2022-10-18T17:19:08.100Z,11.35
2022-10-18T17:21:35.256Z,12.18
2022-10-18T17:24:04.168Z,11.70
2022-10-18T17:26:32.475Z,11.32
2022-10-18T17:29:02.911Z,11.95
2022-10-18T17:31:31.334Z,10.73
2022-10-18T17:34:01.310Z,11.55
2022-10-18T17:36:29.618Z,11.77
2022-10-18T17:38:56.699Z,12.48
2022-10-18T17:41:23.884Z,12.95
2022-10-18T17:43:50.957Z,11.73
2022-10-18T17:46:19.338Z,12.52
2022-10-18T17:48:46.857Z,12.40
2022-10-18T17:51:16.472Z,12.50
2022-10-18T17:53:43.833Z,11.48
2022-10-18T17:56:11.676Z,12.88
2022-10-18T17:58:39.091Z,13.07
2022-10-18T18:01:18.613Z,12.60
2022-10-18T18:03:47.698Z,13.20
2022-10-18T18:06:19.393Z,14.77
2022-10-18T18:08:47.146Z,14.63
2022-10-18T18:11:14.785Z,15.60
2022-10-18T18:13:42.334Z,16.23
2022-10-18T18:16:11.368Z,16.67
2022-10-18T18:18:41.186Z,16.30
2022-10-18T18:21:08.657Z,14.90
2022-10-18T18:23:35.705Z,14.77
2022-10-18T18:26:03.613Z,16.73
2022-10-18T18:28:30.794Z,15.68
2022-10-18T18:30:57.905Z,15.32
2022-10-18T18:33:24.905Z,15.65
2022-10-18T18:35:56.850Z,15.75
2022-10-18T18:38:24.317Z,14.23
2022-10-18T18:41:06.058Z,15.15
2022-10-18T18:43:34.065Z,15.43
2022-10-18T18:46:01.342Z,14.40
2022-10-18T18:48:30.807Z,13.85
2022-10-18T18:50:57.815Z,15.00
2022-10-18T18:53:28.625Z,15.32
2022-10-18T18:56:09.420Z,14.50
2022-10-18T18:58:38.512Z,14.30
2022-10-18T19:01:19.716Z,14.45
2022-10-18T19:03:50.303Z,15.00
2022-10-18T19:06:20.501Z,14.57
2022-10-18T19:08:48.726Z,17.08
2022-10-18T19:11:21.242Z,17.23
2022-10-18T19:13:49.140Z,15.90
2022-10-18T19:16:28.364Z,15.10
2022-10-18T19:19:17.353Z,14.35
2022-10-18T19:21:47.246Z,15.27
2022-10-18T19:24:14.552Z,15.35
2022-10-18T19:26:45.212Z,15.52
2022-10-18T19:29:15.437Z,16.83
2022-10-18T19:31:43.680Z,14.75
2022-10-18T19:34:12.525Z,15.55
2022-10-18T19:36:41.009Z,15.63
2022-10-18T19:39:20.798Z,16.83
2022-10-18T19:41:50.528Z,16.38
2022-10-18T19:44:19.540Z,19.30
2022-10-18T19:46:47.490Z,18.15
2022-10-18T19:49:15.159Z,19.95
2022-10-18T19:51:42.630Z,21.55
2022-10-18T19:54:11.639Z,23.73
2022-10-18T19:56:39.188Z,17.38
2022-10-18T19:59:06.185Z,15.68
2022-10-18T20:01:33.584Z,15.68
2022-10-18T20:04:03.703Z,15.25
2022-10-18T20:06:31.665Z,15.60
2022-10-18T20:08:59.303Z,16.05
2022-10-18T20:11:28.769Z,15.13
2022-10-18T20:13:56.647Z,18.95
2022-10-18T20:16:28.325Z,19.30
2022-10-18T20:18:58.136Z,15.20
2022-10-18T20:21:26.556Z,14.15
2022-10-18T20:23:53.909Z,14.57
2022-10-18T20:26:21.901Z,15.02
2022-10-18T20:28:56.215Z,15.27
2022-10-18T20:31:29.172Z,15.32
2022-10-18T20:33:59.283Z,17.73
2022-10-18T20:36:27.809Z,16.52
2022-10-18T20:38:55.260Z,16.55
2022-10-18T20:41:25.444Z,16.08
2022-10-18T20:43:59.002Z,16.58
2022-10-18T20:46:29.267Z,16.33
2022-10-18T20:48:56.725Z,17.17
2022-10-18T20:51:24.105Z,15.43
2022-10-18T20:53:51.456Z,14.55
2022-10-18T20:56:21.562Z,14.82
2022-10-18T20:58:51.424Z,15.38
2022-10-18T21:01:21.162Z,14.23
2022-10-18T21:03:50.273Z,14.25
2022-10-18T21:06:23.181Z,14.05
2022-10-18T21:09:14.484Z,17.00
2022-10-18T21:11:44.857Z,14.80
2022-10-18T21:14:20.333Z,14.68
2022-10-18T21:16:48.318Z,17.00
2022-10-18T21:19:20.961Z,15.90
2022-10-18T21:24:19.067Z,13.60
2022-10-18T21:26:47.645Z,15.68
2022-10-18T21:29:20.728Z,14.85
2022-10-18T21:31:49.450Z,14.68
2022-10-18T21:34:17.440Z,13.93
2022-10-18T21:36:46.233Z,13.48
2022-10-18T21:39:19.608Z,13.73
2022-10-18T21:41:47.361Z,13.20
2022-10-18T21:44:15.305Z,16.30
2022-10-18T21:46:43.212Z,14.60
2022-10-18T21:49:10.908Z,15.05
2022-10-18T21:51:38.317Z,13.43
2022-10-18T21:54:07.712Z,14.30
2022-10-18T21:56:35.929Z,15.30
2022-10-18T21:59:04.485Z,17.00
2022-10-18T22:01:37.016Z,14.00
2022-10-18T22:04:07.088Z,13.05
2022-10-18T22:09:09.987Z,11.25
2022-10-18T22:11:40.972Z,9.90
2022-10-18T22:14:08.534Z,9.63
2022-10-18T22:16:35.852Z,9.40
2022-10-18T22:19:04.932Z,9.32
2022-10-18T22:21:33.212Z,9.02
2022-10-18T22:24:00.433Z,8.25
2022-10-18T22:26:28.558Z,8.90
2022-10-18T22:29:01.121Z,8.55
2022-10-18T22:33:59.008Z,9.23
2022-10-18T22:36:26.989Z,7.97
2022-10-18T22:38:54.090Z,9.68
2022-10-18T22:41:21.522Z,7.93
2022-10-18T22:43:50.853Z,8.85
2022-10-18T22:46:18.101Z,11.20
2022-10-18T22:48:45.133Z,12.70
2022-10-18T22:51:12.685Z,10.48
2022-10-18T22:53:40.888Z,8.75
2022-10-18T22:56:11.134Z,8.82
2022-10-18T22:58:38.177Z,8.75
2022-10-18T23:01:08.503Z,9.68
2022-10-18T23:03:36.837Z,8.20
2022-10-18T23:06:04.996Z,9.60
2022-10-18T23:08:32.322Z,9.43
2022-10-18T23:11:00.085Z,9.95
2022-10-18T23:13:27.750Z,9.30
2022-10-18T23:16:04.363Z,8.25
2022-10-18T23:18:32.914Z,8.60
2022-10-18T23:21:05.583Z,9.50
2022-10-18T23:26:07.926Z,9.82
2022-10-18T23:31:07.983Z,8.52
2022-10-18T23:33:35.173Z,8.40
2022-10-18T23:36:02.684Z,10.70
2022-10-18T23:38:31.041Z,6.40
2022-10-18T23:40:58.278Z,7.53
2022-10-18T23:43:25.494Z,7.80
2022-10-18T23:45:52.563Z,6.72
2022-10-18T23:48:19.617Z,7.63
2022-10-18T23:50:47.434Z,7.00
2022-10-18T23:53:14.642Z,7.13
2022-10-18T23:55:55.566Z,6.75
2022-10-18T23:58:23.510Z,8.32
